createdAt,value
2023-04-11T00:00:50.742Z,0.00
2023-04-11T00:01:50.873Z,0.00
2023-04-11T00:02:50.957Z,0.00
2023-04-11T00:03:51.116Z,0.00
2023-04-11T00:04:50.976Z,0.00
2023-04-11T00:05:51.019Z,0.00
2023-04-11T00:06:51.065Z,0.00
2023-04-11T00:07:51.119Z,0.00
2023-04-11T00:08:51.180Z,0.00
2023-04-11T00:09:51.250Z,0.00
2023-04-11T00:10:51.336Z,12.05
2023-04-11T00:11:51.361Z,25.00
2023-04-11T00:12:51.418Z,26.05
2023-04-11T00:13:51.437Z,25.00
2023-04-11T00:14:51.473Z,25.80
2023-04-11T00:15:51.537Z,26.99
2023-04-11T00:16:51.673Z,25.00
2023-04-11T00:17:51.726Z,25.83
2023-04-11T00:18:51.722Z,25.86
2023-04-11T00:20:01.244Z,25.86
2023-04-11T00:20:51.735Z,26.48
2023-04-11T00:21:51.728Z,26.66
2023-04-11T00:22:51.716Z,22.16
2023-04-11T00:23:51.714Z,19.05
2023-04-11T00:24:51.720Z,12.16
2023-04-11T00:25:51.697Z,25.00
2023-04-11T00:26:51.722Z,25.00
2023-04-11T00:27:51.682Z,26.92
2023-04-11T00:28:51.677Z,25.00
2023-04-11T00:29:51.668Z,28.73
2023-04-11T00:30:51.677Z,27.12
2023-04-11T00:31:51.683Z,28.58
2023-04-11T00:32:51.682Z,26.36
2023-04-11T00:33:51.656Z,26.91
2023-04-11T00:34:51.636Z,27.11
2023-04-11T00:35:51.673Z,26.43
2023-04-11T00:36:51.679Z,25.00
2023-04-11T00:37:51.653Z,29.56
2023-04-11T00:38:51.605Z,27.13
2023-04-11T00:39:51.604Z,25.66
2023-04-11T00:40:51.591Z,25.84
2023-04-11T00:41:51.581Z,25.48
2023-04-11T00:42:51.629Z,29.57
2023-04-11T00:43:51.684Z,28.40
2023-04-11T00:44:51.748Z,25.46
2023-04-11T00:45:51.806Z,28.61
2023-04-11T00:46:51.842Z,26.84
2023-04-11T00:47:51.995Z,28.61
2023-04-11T00:48:51.941Z,27.73
2023-04-11T00:49:52.011Z,26.87
2023-04-11T00:50:52.072Z,29.24
2023-04-11T00:51:52.113Z,25.10
2023-04-11T00:52:52.168Z,26.55
2023-04-11T00:53:52.214Z,26.47
2023-04-11T00:54:52.288Z,26.06
2023-04-11T00:55:52.329Z,26.81
2023-04-11T00:56:52.392Z,26.90
2023-04-11T00:57:52.448Z,25.00
2023-04-11T00:58:52.535Z,28.07
2023-04-11T00:59:52.578Z,25.65
2023-04-11T01:00:52.699Z,30.52
2023-04-11T01:01:52.899Z,29.15
2023-04-11T01:02:53.031Z,25.87
2023-04-11T01:03:52.875Z,30.50
2023-04-11T01:04:52.870Z,29.25
2023-04-11T01:05:52.917Z,29.00
2023-04-11T01:06:53.000Z,26.87
2023-04-11T01:07:53.021Z,27.35
2023-04-11T01:08:53.343Z,29.29
2023-04-11T01:09:53.117Z,28.89
2023-04-11T01:10:53.177Z,28.71
2023-04-11T01:11:53.241Z,28.67
2023-04-11T01:12:53.299Z,25.00
2023-04-11T01:13:53.358Z,26.28
2023-04-11T01:14:53.420Z,28.50
2023-04-11T01:15:53.442Z,26.79
2023-04-11T01:16:53.522Z,27.79
2023-04-11T01:17:53.567Z,29.08
2023-04-11T01:18:53.852Z,28.36
2023-04-11T01:19:53.658Z,26.83
2023-04-11T01:20:53.715Z,28.33
2023-04-11T01:21:53.771Z,29.50
2023-04-11T01:22:53.829Z,27.19
2023-04-11T01:23:53.878Z,30.29
2023-04-11T01:24:53.923Z,27.83
2023-04-11T01:25:53.975Z,29.33
2023-04-11T01:26:54.043Z,30.68
2023-04-11T01:27:54.115Z,29.44
2023-04-11T01:28:54.375Z,28.87
2023-04-11T01:29:54.205Z,28.55
2023-04-11T01:30:54.312Z,32.63
2023-04-11T01:31:54.309Z,28.16
2023-04-11T01:32:54.396Z,31.12
2023-04-11T01:33:54.418Z,30.56
2023-04-11T01:34:54.459Z,27.73
2023-04-11T01:35:54.532Z,29.03
2023-04-11T01:36:54.540Z,27.24
2023-04-11T01:37:54.562Z,27.59
2023-04-11T01:38:54.959Z,27.12
2023-04-11T01:39:54.665Z,27.32
2023-04-11T01:40:54.700Z,26.38
2023-04-11T01:41:54.737Z,28.47
2023-04-11T01:42:54.792Z,29.27
2023-04-11T01:43:54.858Z,30.45
2023-04-11T01:44:54.897Z,29.37
2023-04-11T01:45:54.947Z,31.27
2023-04-11T01:46:55.034Z,31.12
2023-04-11T01:47:55.141Z,28.86
2023-04-11T01:48:55.542Z,28.97
2023-04-11T01:49:55.181Z,31.38
2023-04-11T01:50:55.235Z,27.39
2023-04-11T01:51:55.298Z,29.37
2023-04-11T01:52:55.334Z,28.72
2023-04-11T01:53:55.388Z,25.36
2023-04-11T01:54:55.410Z,30.02
2023-04-11T01:55:55.457Z,27.13
2023-04-11T01:56:55.503Z,30.79
2023-04-11T01:57:55.562Z,27.55
2023-04-11T01:58:55.788Z,31.34
2023-04-11T01:59:55.678Z,26.37
2023-04-11T02:00:55.745Z,30.72
2023-04-11T02:01:55.843Z,30.05
2023-04-11T02:02:56.022Z,27.88
2023-04-11T02:03:56.046Z,29.69
2023-04-11T02:04:55.960Z,32.03
2023-04-11T02:05:56.033Z,32.27
2023-04-11T02:06:56.091Z,31.14
2023-04-11T02:07:56.130Z,30.30
2023-04-11T02:08:56.335Z,32.22
2023-04-11T02:09:56.261Z,34.21
2023-04-11T02:10:56.301Z,31.88
2023-04-11T02:11:56.365Z,32.64
2023-04-11T02:12:56.444Z,32.06
2023-04-11T02:13:56.477Z,31.00
2023-04-11T02:14:56.564Z,32.55
2023-04-11T02:15:56.613Z,34.14
2023-04-11T02:16:56.648Z,30.85
2023-04-11T02:17:56.726Z,30.07
2023-04-11T02:18:56.926Z,29.06
2023-04-11T02:19:56.797Z,30.39
2023-04-11T02:20:56.852Z,29.39
2023-04-11T02:21:56.916Z,30.18
2023-04-11T02:22:56.974Z,28.26
2023-04-11T02:23:57.038Z,33.54
2023-04-11T02:24:57.121Z,31.42
2023-04-11T02:25:57.177Z,28.90
2023-04-11T02:26:57.227Z,32.50
2023-04-11T02:27:57.282Z,32.08
2023-04-11T02:28:57.553Z,33.09
2023-04-11T02:29:57.402Z,32.66
2023-04-11T02:30:57.535Z,30.52
2023-04-11T02:31:57.651Z,32.19
2023-04-11T02:32:57.599Z,32.00
2023-04-11T02:33:57.615Z,32.66
2023-04-11T02:34:57.691Z,31.15
2023-04-11T02:35:57.730Z,29.16
2023-04-11T02:36:57.827Z,30.12
2023-04-11T02:37:57.835Z,35.01
2023-04-11T02:38:57.889Z,34.26
2023-04-11T02:39:57.945Z,33.73
2023-04-11T02:40:57.998Z,32.41
2023-04-11T02:41:58.043Z,33.37
2023-04-11T02:42:58.113Z,33.28
2023-04-11T02:43:58.177Z,31.63
2023-04-11T02:44:58.216Z,29.35
2023-04-11T02:46:09.530Z,29.08
2023-04-11T02:46:58.266Z,29.50
2023-04-11T02:47:58.271Z,30.45
2023-04-11T02:48:58.295Z,32.42
2023-04-11T02:49:58.226Z,34.22
2023-04-11T02:50:58.241Z,33.57
2023-04-11T02:51:58.228Z,33.20
2023-04-11T02:52:58.201Z,36.75
2023-04-11T02:53:58.206Z,31.32
2023-04-11T02:54:58.188Z,33.13
2023-04-11T02:55:58.194Z,33.68
2023-04-11T02:56:58.186Z,34.55
2023-04-11T02:57:58.170Z,33.90
2023-04-11T02:58:58.855Z,31.48
2023-04-11T02:59:58.160Z,30.62
2023-04-11T03:00:58.144Z,35.05
2023-04-11T03:01:58.311Z,33.94
2023-04-11T03:02:58.202Z,30.89
2023-04-11T03:03:58.209Z,33.56
2023-04-11T03:04:58.111Z,31.16
2023-04-11T03:05:58.113Z,32.78
2023-04-11T03:06:58.132Z,33.38
2023-04-11T03:07:58.111Z,29.89
2023-04-11T03:08:58.322Z,33.44
2023-04-11T03:09:58.090Z,32.22
2023-04-11T03:10:58.148Z,30.34
2023-04-11T03:11:58.221Z,29.28
2023-04-11T03:12:58.273Z,33.09
2023-04-11T03:13:58.336Z,31.97
2023-04-11T03:14:58.384Z,31.01
2023-04-11T03:15:58.457Z,34.92
2023-04-11T03:16:58.496Z,31.63
2023-04-11T03:17:58.633Z,30.03
2023-04-11T03:18:58.639Z,31.35
2023-04-11T03:19:58.675Z,31.80
2023-04-11T03:20:58.738Z,31.12
2023-04-11T03:21:58.795Z,33.53
2023-04-11T03:22:58.877Z,31.78
2023-04-11T03:23:58.901Z,29.33
2023-04-11T03:24:58.945Z,31.06
2023-04-11T03:25:59.028Z,31.71
2023-04-11T03:26:59.062Z,29.13
2023-04-11T03:27:59.132Z,33.65
2023-04-11T03:28:59.173Z,34.54
2023-04-11T03:29:59.194Z,30.49
2023-04-11T03:30:59.265Z,31.36
2023-04-11T03:31:59.313Z,32.60
2023-04-11T03:32:59.391Z,30.66
2023-04-11T03:33:59.420Z,30.32
2023-04-11T03:34:59.451Z,31.95
2023-04-11T03:35:59.502Z,28.87
2023-04-11T03:36:59.555Z,31.90
2023-04-11T03:37:59.605Z,32.45
2023-04-11T03:38:59.694Z,32.16
2023-04-11T03:39:59.699Z,29.89
2023-04-11T03:40:59.756Z,30.54
2023-04-11T03:41:59.801Z,31.72
2023-04-11T03:43:00.257Z,29.06
2023-04-11T03:43:59.900Z,33.83
2023-04-11T03:44:59.947Z,33.14
2023-04-11T03:45:59.999Z,29.88
2023-04-11T03:47:00.071Z,32.09
2023-04-11T03:48:00.129Z,30.28
2023-04-11T03:49:00.171Z,32.60
2023-04-11T03:50:00.192Z,29.74
2023-04-11T03:51:00.230Z,32.04
2023-04-11T03:52:00.283Z,31.47
2023-04-11T03:53:00.355Z,31.28
2023-04-11T03:54:00.414Z,30.50
2023-04-11T03:55:00.487Z,30.91
2023-04-11T03:56:00.504Z,31.06
2023-04-11T03:57:00.540Z,29.55
2023-04-11T03:58:00.615Z,29.88
2023-04-11T03:59:00.669Z,30.42
2023-04-11T04:00:00.722Z,30.29
2023-04-11T04:01:00.767Z,31.67
2023-04-11T04:02:00.880Z,30.64
2023-04-11T04:03:01.040Z,29.33
2023-04-11T04:04:01.317Z,33.13
2023-04-11T04:05:01.014Z,33.15
2023-04-11T04:06:01.029Z,30.86
2023-04-11T04:07:01.070Z,33.31
2023-04-11T04:08:01.111Z,31.74
2023-04-11T04:09:01.145Z,32.37
2023-04-11T04:10:01.167Z,29.66
2023-04-11T04:11:01.227Z,30.86
2023-04-11T04:12:01.244Z,34.26
2023-04-11T04:13:01.298Z,29.89
2023-04-11T04:14:01.361Z,25.69
2023-04-11T04:15:01.410Z,32.07
2023-04-11T04:16:03.498Z,28.74
2023-04-11T04:17:01.468Z,34.98
2023-04-11T04:18:01.502Z,34.53
2023-04-11T04:19:01.454Z,33.39
2023-04-11T04:20:01.435Z,32.56
2023-04-11T04:21:01.435Z,31.04
2023-04-11T04:22:01.439Z,35.57
2023-04-11T04:23:01.415Z,33.50
2023-04-11T04:24:01.414Z,35.57
2023-04-11T04:25:01.412Z,30.73
2023-04-11T04:26:01.456Z,35.52
2023-04-11T04:27:01.419Z,34.58
2023-04-11T04:28:01.376Z,34.15
2023-04-11T04:29:01.387Z,32.03
2023-04-11T04:30:04.229Z,32.96
2023-04-11T04:31:01.366Z,33.25
2023-04-11T04:32:01.425Z,33.54
2023-04-11T04:33:01.395Z,33.96
2023-04-11T04:34:01.358Z,36.41
2023-04-11T04:35:01.358Z,38.53
2023-04-11T04:36:01.425Z,34.35
2023-04-11T04:37:01.320Z,34.05
2023-04-11T04:38:01.318Z,35.83
2023-04-11T04:39:01.302Z,36.16
2023-04-11T04:40:01.308Z,35.49
2023-04-11T04:41:01.285Z,35.82
2023-04-11T04:42:01.285Z,37.88
2023-04-11T04:43:01.310Z,36.83
2023-04-11T04:44:01.285Z,35.44
2023-04-11T04:45:01.298Z,33.37
2023-04-11T04:46:01.347Z,35.95
2023-04-11T04:47:01.245Z,36.68
2023-04-11T04:48:01.252Z,33.22
2023-04-11T04:49:02.416Z,34.10
2023-04-11T04:50:01.226Z,33.02
2023-04-11T04:51:01.246Z,35.99
2023-04-11T04:52:01.290Z,35.44
2023-04-11T04:53:01.345Z,34.23
2023-04-11T04:54:01.398Z,35.99
2023-04-11T04:55:01.557Z,33.37
2023-04-11T04:56:01.530Z,37.00
2023-04-11T04:57:01.544Z,38.79
2023-04-11T04:58:01.618Z,37.18
2023-04-11T04:59:01.674Z,34.61
2023-04-11T05:00:01.680Z,36.85
2023-04-11T05:01:01.754Z,38.42
2023-04-11T05:02:01.851Z,36.42
2023-04-11T05:03:01.953Z,37.68
2023-04-11T05:04:02.583Z,36.41
2023-04-11T05:05:01.930Z,37.82
2023-04-11T05:06:02.255Z,35.33
2023-04-11T05:07:02.028Z,36.86
2023-04-11T05:08:02.094Z,38.61
2023-04-11T05:09:02.134Z,37.14
2023-04-11T05:10:02.194Z,38.57
2023-04-11T05:11:02.251Z,35.82
2023-04-11T05:12:02.315Z,36.58
2023-04-11T05:13:02.367Z,39.00
2023-04-11T05:14:02.416Z,40.80
2023-04-11T05:15:02.483Z,35.83
2023-04-11T05:16:02.583Z,35.72
2023-04-11T05:17:02.617Z,36.68
2023-04-11T05:18:02.642Z,34.46
2023-04-11T05:19:02.608Z,36.16
2023-04-11T05:20:02.656Z,34.95
2023-04-11T05:21:02.757Z,37.97
2023-04-11T05:22:02.773Z,38.42
2023-04-11T05:23:02.808Z,39.26
2023-04-11T05:24:02.849Z,40.66
2023-04-11T05:25:02.899Z,44.38
2023-04-11T05:26:02.948Z,44.27
2023-04-11T05:27:02.997Z,46.69
2023-04-11T05:28:03.052Z,45.82
2023-04-11T05:29:03.135Z,43.04
2023-04-11T05:30:03.675Z,46.53
2023-04-11T05:31:03.855Z,46.57
2023-04-11T05:32:03.246Z,45.64
2023-04-11T05:33:03.871Z,46.30
2023-04-11T05:34:03.345Z,46.06
2023-04-11T05:35:03.384Z,43.51
2023-04-11T05:36:03.443Z,44.15
2023-04-11T05:37:03.459Z,46.57
2023-04-11T05:38:03.532Z,51.44
2023-04-11T05:39:03.575Z,44.98
2023-04-11T05:40:03.649Z,46.41
2023-04-11T05:41:03.741Z,47.66
2023-04-11T05:42:04.119Z,50.56
2023-04-11T05:43:03.836Z,52.38
2023-04-11T05:44:04.241Z,55.95
2023-04-11T05:45:03.970Z,63.10
2023-04-11T05:46:04.048Z,63.30
2023-04-11T05:47:04.066Z,67.09
2023-04-11T05:48:04.110Z,67.78
2023-04-11T05:49:04.241Z,68.63
2023-04-11T05:50:04.172Z,65.96
2023-04-11T05:51:04.232Z,71.75
2023-04-11T05:52:04.268Z,73.72
2023-04-11T05:53:04.762Z,77.51
2023-04-11T05:54:04.773Z,83.87
2023-04-11T05:55:04.475Z,86.54
2023-04-11T05:56:04.545Z,92.33
2023-04-11T05:57:04.586Z,94.13
2023-04-11T05:58:05.771Z,101.41
2023-04-11T05:59:04.653Z,104.12
2023-04-11T06:00:07.974Z,104.81
2023-04-11T06:01:04.681Z,105.09
2023-04-11T06:02:04.958Z,106.30
2023-04-11T06:03:04.766Z,107.57
2023-04-11T06:04:05.168Z,112.43
2023-04-11T06:05:04.703Z,118.53
2023-04-11T06:06:04.659Z,118.58
2023-04-11T06:07:06.732Z,121.93
2023-04-11T06:08:12.055Z,123.94
2023-04-11T06:09:12.068Z,124.56
2023-04-11T06:10:04.787Z,124.80
2023-04-11T06:11:04.629Z,127.37
2023-04-11T06:12:04.646Z,131.53
2023-04-11T06:13:05.594Z,134.67
2023-04-11T06:14:05.782Z,146.59
2023-04-11T06:15:05.590Z,148.11
2023-04-11T06:16:04.634Z,151.53
2023-04-11T06:17:04.552Z,148.71
2023-04-11T06:18:04.841Z,149.97
2023-04-11T06:19:04.647Z,153.21
2023-04-11T06:20:06.016Z,153.80
2023-04-11T06:21:06.010Z,153.42
2023-04-11T06:22:04.851Z,156.61
2023-04-11T06:23:04.910Z,158.72
2023-04-11T06:24:05.256Z,153.53
2023-04-11T06:25:05.049Z,160.68
2023-04-11T06:26:05.747Z,157.53
2023-04-11T06:27:05.153Z,159.43
2023-04-11T06:28:05.206Z,161.82
2023-04-11T06:29:05.273Z,161.69
2023-04-11T06:30:05.347Z,160.83
2023-04-11T06:31:05.435Z,163.05
2023-04-11T06:32:06.481Z,159.27
2023-04-11T06:33:05.884Z,156.04
2023-04-11T06:34:05.608Z,156.50
2023-04-11T06:35:05.681Z,157.93
2023-04-11T06:36:06.214Z,156.87
2023-04-11T06:37:06.764Z,157.37
2023-04-11T06:38:06.293Z,160.61
2023-04-11T06:39:05.846Z,161.71
2023-04-11T06:40:05.897Z,163.63
2023-04-11T06:41:05.976Z,169.35
2023-04-11T06:42:06.028Z,174.45
2023-04-11T06:43:06.290Z,186.15
2023-04-11T06:44:06.130Z,195.76
2023-04-11T06:45:06.351Z,201.40
2023-04-11T06:46:06.263Z,200.06
2023-04-11T06:47:06.242Z,208.64
2023-04-11T06:48:06.304Z,218.59
2023-04-11T06:49:06.317Z,224.93
2023-04-11T06:50:06.360Z,230.43
2023-04-11T06:51:06.443Z,236.77
2023-04-11T06:52:06.361Z,238.89
2023-04-11T06:53:06.768Z,242.32
2023-04-11T06:54:06.790Z,241.94
2023-04-11T06:55:06.350Z,239.53
2023-04-11T06:56:06.372Z,239.59
2023-04-11T06:57:06.413Z,238.75
2023-04-11T06:58:06.417Z,234.80
2023-04-11T06:59:06.815Z,237.53
2023-04-11T07:00:06.412Z,232.65
2023-04-11T07:01:07.437Z,240.84
2023-04-11T07:02:06.550Z,240.76
2023-04-11T07:03:06.663Z,239.68
2023-04-11T07:04:06.847Z,243.95
2023-04-11T07:05:06.510Z,245.35
2023-04-11T07:06:06.545Z,247.34
2023-04-11T07:07:06.599Z,250.00
2023-04-11T07:08:06.599Z,250.00
2023-04-11T07:09:06.579Z,247.38
2023-04-11T07:10:06.621Z,245.17
2023-04-11T07:11:06.642Z,245.50
2023-04-11T07:12:06.671Z,246.47
2023-04-11T07:13:06.687Z,250.00
2023-04-11T07:14:06.730Z,249.40
2023-04-11T07:15:06.767Z,247.23
2023-04-11T07:16:06.827Z,245.78
2023-04-11T07:17:06.866Z,246.21
2023-04-11T07:18:06.978Z,249.17
2023-04-11T07:19:06.985Z,250.00
2023-04-11T07:20:07.278Z,246.84
2023-04-11T07:21:07.038Z,248.00
2023-04-11T07:22:07.074Z,248.40
2023-04-11T07:23:07.118Z,248.29
2023-04-11T07:24:07.278Z,250.17
2023-04-11T07:25:07.176Z,243.79
2023-04-11T07:26:07.285Z,247.79
2023-04-11T07:27:07.288Z,246.14
2023-04-11T07:28:07.365Z,244.75
2023-04-11T07:30:06.446Z,249.34
2023-04-11T07:31:07.859Z,248.31
2023-04-11T07:32:07.579Z,246.94
2023-04-11T07:33:08.103Z,247.90
2023-04-11T07:34:07.690Z,246.57
2023-04-11T07:35:07.837Z,245.67
2023-04-11T07:36:07.850Z,247.51
2023-04-11T07:37:07.856Z,247.24
2023-04-11T07:38:07.909Z,248.01
2023-04-11T07:39:07.993Z,228.09
2023-04-11T07:40:08.327Z,238.86
2023-04-11T07:41:08.290Z,224.25
2023-04-11T07:42:08.110Z,234.69
2023-04-11T07:43:08.180Z,242.32
2023-04-11T07:44:08.287Z,246.77
2023-04-11T07:45:08.177Z,250.00
2023-04-11T07:46:08.256Z,248.52
2023-04-11T07:47:08.196Z,251.24
2023-04-11T07:48:08.295Z,248.07
2023-04-11T07:49:08.286Z,250.00
2023-04-11T07:50:08.326Z,250.00
2023-04-11T07:51:08.398Z,249.33
2023-04-11T07:52:08.448Z,245.62
2023-04-11T07:53:08.788Z,248.95
2023-04-11T07:54:08.537Z,248.43
2023-04-11T07:55:08.608Z,248.39
2023-04-11T07:56:08.963Z,249.18
2023-04-11T07:57:08.707Z,248.61
2023-04-11T07:58:08.747Z,249.87
2023-04-11T07:59:08.806Z,248.69
2023-04-11T08:00:10.957Z,248.83
2023-04-11T08:01:09.296Z,247.63
2023-04-11T08:02:09.838Z,248.84
2023-04-11T08:03:09.424Z,250.00
2023-04-11T08:04:09.685Z,250.00
2023-04-11T08:05:09.065Z,249.30
2023-04-11T08:06:09.386Z,246.30
2023-04-11T08:07:08.810Z,249.03
2023-04-11T08:08:08.801Z,248.56
2023-04-11T08:09:08.788Z,249.21
2023-04-11T08:10:08.804Z,249.10
2023-04-11T08:11:08.812Z,249.71
2023-04-11T08:12:08.799Z,247.85
2023-04-11T08:13:08.766Z,248.57
2023-04-11T08:14:08.793Z,250.00
2023-04-11T08:15:08.848Z,249.92
2023-04-11T08:16:09.360Z,246.84
2023-04-11T08:17:17.648Z,246.56
2023-04-11T08:18:12.107Z,246.76
2023-04-11T08:19:09.326Z,247.05
2023-04-11T08:20:08.962Z,247.55
2023-04-11T08:21:08.930Z,248.52
2023-04-11T08:22:08.949Z,250.04
2023-04-11T08:23:09.001Z,250.96
2023-04-11T08:24:09.323Z,249.31
2023-04-11T08:25:08.928Z,249.48
2023-04-11T08:26:09.304Z,247.16
2023-04-11T08:27:08.931Z,249.39
2023-04-11T08:28:09.911Z,249.73
2023-04-11T08:29:08.903Z,248.78
2023-04-11T08:30:08.876Z,247.73
2023-04-11T08:31:09.399Z,246.71
2023-04-11T08:32:09.307Z,246.15
2023-04-11T08:33:08.852Z,245.35
2023-04-11T08:34:09.442Z,246.01
2023-04-11T08:35:15.814Z,244.42
2023-04-11T08:36:08.855Z,244.83
2023-04-11T08:37:08.817Z,245.53
2023-04-11T08:38:08.820Z,246.45
2023-04-11T08:39:08.948Z,248.32
2023-04-11T08:40:08.811Z,247.91
2023-04-11T08:41:08.813Z,247.00
2023-04-11T08:42:08.805Z,247.90
2023-04-11T08:43:08.818Z,245.44
2023-04-11T08:44:08.902Z,247.48
2023-04-11T08:45:09.055Z,246.08
2023-04-11T08:46:09.188Z,247.12
2023-04-11T08:47:08.755Z,245.94
2023-04-11T08:48:09.625Z,246.52
2023-04-11T08:49:08.919Z,245.63
2023-04-11T08:50:09.653Z,246.30
2023-04-11T08:51:09.026Z,244.23
2023-04-11T08:52:09.065Z,243.92
2023-04-11T08:53:09.379Z,243.51
2023-04-11T08:54:10.069Z,244.21
2023-04-11T08:55:09.438Z,243.23
2023-04-11T08:56:09.319Z,244.47
2023-04-11T08:57:09.282Z,244.15
2023-04-11T08:58:09.248Z,242.80
2023-04-11T08:59:09.517Z,241.08
2023-04-11T09:00:09.145Z,241.69
2023-04-11T09:01:09.383Z,240.83
2023-04-11T09:02:09.363Z,238.96
2023-04-11T09:03:09.398Z,237.47
2023-04-11T09:04:09.434Z,239.07
2023-04-11T09:05:10.301Z,239.15
2023-04-11T09:06:09.641Z,241.92
2023-04-11T09:07:09.519Z,240.81
2023-04-11T09:08:09.147Z,239.04
2023-04-11T09:09:08.099Z,241.26
2023-04-11T09:10:09.527Z,240.22
2023-04-11T09:11:09.337Z,239.67
2023-04-11T09:12:09.052Z,237.86
2023-04-11T09:13:09.043Z,237.59
2023-04-11T09:14:09.342Z,236.72
2023-04-11T09:15:09.474Z,238.84
2023-04-11T09:16:09.178Z,237.04
2023-04-11T09:17:09.031Z,238.75
2023-04-11T09:18:09.024Z,235.65
2023-04-11T09:19:09.013Z,235.09
2023-04-11T09:20:09.345Z,235.55
2023-04-11T09:21:08.989Z,235.22
2023-04-11T09:22:08.998Z,235.07
2023-04-11T09:23:08.999Z,237.56
2023-04-11T09:24:09.342Z,237.26
2023-04-11T09:25:08.969Z,236.96
2023-04-11T09:26:08.977Z,234.88
2023-04-11T09:27:08.998Z,233.97
2023-04-11T09:28:09.028Z,233.87
2023-04-11T09:29:09.345Z,234.08
2023-04-11T09:30:09.356Z,235.75
2023-04-11T09:31:09.140Z,234.83
2023-04-11T09:32:09.357Z,237.10
2023-04-11T09:33:09.193Z,235.61
2023-04-11T09:34:09.351Z,234.71
2023-04-11T09:35:09.284Z,235.06
2023-04-11T09:36:09.358Z,236.17
2023-04-11T09:37:09.373Z,236.60
2023-04-11T09:38:09.427Z,232.65
2023-04-11T09:39:09.853Z,234.77
2023-04-11T09:40:09.517Z,233.18
2023-04-11T09:41:09.864Z,234.16
2023-04-11T09:42:09.856Z,235.15
2023-04-11T09:43:09.722Z,236.08
2023-04-11T09:44:09.760Z,234.49
2023-04-11T09:45:17.210Z,232.90
2023-04-11T09:46:09.962Z,233.17
2023-04-11T09:47:09.830Z,234.02
2023-04-11T09:48:09.865Z,234.78
2023-04-11T09:50:08.783Z,208.52
2023-04-11T09:51:11.490Z,204.88
2023-04-11T09:52:09.856Z,213.89
2023-04-11T09:53:09.765Z,215.01
2023-04-11T09:54:09.855Z,217.97
2023-04-11T09:55:10.162Z,219.64
2023-04-11T09:56:09.758Z,221.84
2023-04-11T09:57:09.861Z,227.36
2023-04-11T09:58:09.964Z,226.66
2023-04-11T09:59:09.709Z,228.53
2023-04-11T10:00:09.712Z,230.36
2023-04-11T10:01:09.947Z,232.42
2023-04-11T10:02:09.765Z,236.94
2023-04-11T10:03:09.862Z,240.64
2023-04-11T10:04:09.904Z,239.74
2023-04-11T10:05:10.009Z,239.75
2023-04-11T10:06:09.666Z,243.00
2023-04-11T10:07:10.052Z,247.16
2023-04-11T10:08:10.089Z,247.38
2023-04-11T10:09:09.992Z,248.64
2023-04-11T10:10:10.653Z,250.00
2023-04-11T10:11:09.916Z,249.71
2023-04-11T10:12:10.011Z,249.17
2023-04-11T10:13:09.610Z,249.83
2023-04-11T10:14:09.616Z,248.98
2023-04-11T10:15:09.644Z,249.25
2023-04-11T10:16:10.384Z,249.03
2023-04-11T10:17:09.873Z,248.85
2023-04-11T10:18:09.749Z,250.00
2023-04-11T10:19:09.801Z,249.84
2023-04-11T10:20:09.787Z,248.18
2023-04-11T10:21:09.827Z,250.00
2023-04-11T10:22:09.868Z,249.62
2023-04-11T10:23:10.372Z,248.43
2023-04-11T10:24:09.957Z,249.64
2023-04-11T10:25:09.937Z,248.05
2023-04-11T10:26:11.024Z,250.00
2023-04-11T10:27:10.366Z,247.52
2023-04-11T10:28:10.031Z,237.52
2023-04-11T10:29:10.372Z,225.31
2023-04-11T10:30:10.128Z,234.64
2023-04-11T10:31:10.377Z,235.60
2023-04-11T10:32:10.870Z,229.12
2023-04-11T10:33:13.605Z,223.00
2023-04-11T10:34:10.285Z,221.82
2023-04-11T10:35:10.285Z,217.04
2023-04-11T10:36:10.716Z,214.12
2023-04-11T10:37:10.472Z,217.06
2023-04-11T10:38:10.563Z,217.33
2023-04-11T10:39:10.372Z,220.04
2023-04-11T10:40:10.558Z,220.20
2023-04-11T10:41:10.277Z,222.30
2023-04-11T10:42:10.221Z,223.92
2023-04-11T10:43:10.206Z,227.85
2023-04-11T10:44:10.375Z,231.32
2023-04-11T10:45:10.234Z,233.43
2023-04-11T10:46:10.180Z,235.54
2023-04-11T10:47:10.221Z,237.34
2023-04-11T10:48:10.187Z,240.84
2023-04-11T10:49:10.383Z,244.94
2023-04-11T10:50:10.166Z,249.42
2023-04-11T10:51:10.181Z,250.00
2023-04-11T10:52:10.145Z,246.94
2023-04-11T10:53:10.384Z,250.14
2023-04-11T10:54:10.381Z,249.45
2023-04-11T10:55:10.144Z,250.05
2023-04-11T10:56:10.129Z,250.00
2023-04-11T10:57:10.116Z,250.00
2023-04-11T10:58:10.384Z,249.48
2023-04-11T10:59:10.395Z,248.13
2023-04-11T11:00:10.113Z,249.79
2023-04-11T11:01:13.234Z,250.00
2023-04-11T11:02:10.144Z,250.32
2023-04-11T11:03:10.194Z,251.44
2023-04-11T11:04:10.831Z,253.34
2023-04-11T11:05:10.104Z,258.67
2023-04-11T11:06:10.424Z,260.77
2023-04-11T11:07:10.072Z,250.02
2023-04-11T11:08:10.311Z,249.04
2023-04-11T11:09:11.005Z,249.72
2023-04-11T11:10:10.043Z,249.99
2023-04-11T11:11:10.117Z,247.44
2023-04-11T11:12:10.157Z,248.41
2023-04-11T11:13:10.418Z,248.28
2023-04-11T11:14:10.094Z,249.92
2023-04-11T11:15:10.122Z,247.73
2023-04-11T11:16:10.224Z,248.78
2023-04-11T11:17:10.246Z,249.89
2023-04-11T11:18:10.392Z,248.98
2023-04-11T11:19:10.372Z,249.53
2023-04-11T11:20:10.421Z,248.09
2023-04-11T11:21:14.209Z,249.86
2023-04-11T11:22:10.461Z,250.06
2023-04-11T11:23:10.910Z,221.33
2023-04-11T11:24:10.884Z,180.18
2023-04-11T11:25:10.449Z,164.03
2023-04-11T11:26:10.428Z,147.50
2023-04-11T11:27:10.430Z,144.21
2023-04-11T11:28:10.418Z,140.25
2023-04-11T11:29:10.892Z,130.43
2023-04-11T11:30:10.410Z,133.13
2023-04-11T11:31:10.397Z,136.58
2023-04-11T11:32:10.414Z,140.21
2023-04-11T11:33:10.444Z,142.99
2023-04-11T11:35:09.374Z,146.41
2023-04-11T11:36:10.410Z,146.90
2023-04-11T11:37:10.356Z,148.69
2023-04-11T11:38:10.399Z,150.09
2023-04-11T11:39:10.370Z,153.85
2023-04-11T11:40:10.333Z,155.81
2023-04-11T11:41:10.334Z,158.28
2023-04-11T11:42:10.346Z,160.14
2023-04-11T11:43:10.391Z,161.25
2023-04-11T11:44:10.304Z,166.79
2023-04-11T11:45:10.312Z,166.98
2023-04-11T11:46:10.331Z,169.05
2023-04-11T11:47:10.307Z,171.53
2023-04-11T11:48:10.406Z,172.21
2023-04-11T11:49:10.285Z,175.20
2023-04-11T11:50:10.301Z,151.09
2023-04-11T11:51:10.284Z,89.47
2023-04-11T11:52:10.259Z,84.49
2023-04-11T11:53:10.256Z,83.21
2023-04-11T11:54:10.373Z,85.88
2023-04-11T11:55:11.459Z,86.33
2023-04-11T11:56:10.242Z,98.93
2023-04-11T11:57:10.354Z,114.94
2023-04-11T11:58:10.406Z,122.27
2023-04-11T11:59:10.279Z,119.61
2023-04-11T12:00:10.346Z,114.98
2023-04-11T12:01:10.370Z,112.84
2023-04-11T12:02:10.512Z,110.44
2023-04-11T12:03:10.580Z,112.37
2023-04-11T12:04:10.656Z,108.71
2023-04-11T12:05:10.625Z,106.01
2023-04-11T12:06:10.617Z,106.73
2023-04-11T12:07:10.716Z,107.00
2023-04-11T12:08:10.913Z,107.66
2023-04-11T12:09:10.785Z,107.29
2023-04-11T12:10:10.837Z,106.45
2023-04-11T12:11:10.915Z,105.90
2023-04-11T12:12:10.942Z,105.72
2023-04-11T12:13:11.408Z,107.93
2023-04-11T12:14:11.055Z,108.36
2023-04-11T12:15:11.119Z,109.69
2023-04-11T12:16:11.510Z,109.38
2023-04-11T12:17:11.199Z,109.88
2023-04-11T12:18:11.331Z,108.15
2023-04-11T12:19:11.305Z,109.65
2023-04-11T12:20:11.346Z,108.82
2023-04-11T12:21:11.353Z,108.78
2023-04-11T12:22:11.689Z,108.84
2023-04-11T12:23:11.919Z,110.47
2023-04-11T12:24:11.477Z,108.39
2023-04-11T12:25:11.523Z,108.64
2023-04-11T12:26:11.567Z,108.79
2023-04-11T12:27:12.512Z,106.98
2023-04-11T12:28:11.625Z,107.80
2023-04-11T12:29:11.910Z,108.25
2023-04-11T12:30:11.712Z,108.25
2023-04-11T12:31:11.814Z,108.17
2023-04-11T12:32:11.815Z,109.65
2023-04-11T12:33:11.925Z,110.02
2023-04-11T12:34:11.909Z,108.82
2023-04-11T12:35:12.433Z,108.58
2023-04-11T12:36:12.012Z,106.29
2023-04-11T12:37:12.044Z,107.36
2023-04-11T12:38:14.885Z,105.42
2023-04-11T12:39:12.424Z,105.55
2023-04-11T12:40:12.399Z,105.79
2023-04-11T12:41:30.934Z,105.82
2023-04-11T12:42:12.359Z,105.66
2023-04-11T12:43:12.449Z,106.18
2023-04-11T12:44:12.274Z,106.06